createdAt,value
2024-02-23T00:00:01.338Z,0
2024-02-23T00:01:01.380Z,0
2024-02-23T00:02:01.511Z,0
2024-02-23T00:04:01.468Z,0
2024-02-23T00:05:01.687Z,0
2024-02-23T00:06:01.274Z,0
2024-02-23T00:07:01.519Z,0
2024-02-23T00:08:01.544Z,0
2024-02-23T00:09:01.274Z,0
2024-02-23T00:10:01.322Z,0
2024-02-23T00:11:01.846Z,0
2024-02-23T00:12:02.139Z,0
2024-02-23T00:14:01.654Z,0
2024-02-23T00:15:01.276Z,0
2024-02-23T00:16:01.330Z,0
2024-02-23T00:17:01.476Z,0
2024-02-23T00:18:01.383Z,0
2024-02-23T00:19:01.684Z,0
2024-02-23T00:20:01.371Z,0
2024-02-23T00:22:01.576Z,0
2024-02-23T00:23:01.376Z,0
2024-02-23T00:25:01.259Z,0
2024-02-23T00:26:01.438Z,0
2024-02-23T00:27:01.293Z,0
2024-02-23T00:28:01.376Z,0
2024-02-23T00:29:01.369Z,0
2024-02-23T00:30:01.249Z,0
2024-02-23T00:31:01.314Z,0
2024-02-23T00:32:01.515Z,0
2024-02-23T00:33:01.625Z,0
2024-02-23T00:34:01.502Z,0
2024-02-23T00:36:01.273Z,0
2024-02-23T00:37:01.269Z,0
2024-02-23T00:38:01.490Z,0
2024-02-23T00:39:01.279Z,0
2024-02-23T00:40:01.285Z,0
2024-02-23T00:41:01.543Z,0
2024-02-23T00:42:01.289Z,0
2024-02-23T00:43:01.263Z,0
2024-02-23T00:44:01.508Z,0
2024-02-23T00:45:01.308Z,0
2024-02-23T00:46:01.262Z,0
2024-02-23T00:47:01.468Z,0
2024-02-23T00:48:01.715Z,0
2024-02-23T00:49:01.444Z,0
2024-02-23T00:50:01.473Z,0
2024-02-23T00:52:01.288Z,0
2024-02-23T00:53:01.491Z,0
2024-02-23T00:55:01.333Z,0
2024-02-23T00:56:01.484Z,0
2024-02-23T00:57:01.847Z,0
2024-02-23T00:58:01.282Z,0
2024-02-23T00:59:01.510Z,0
2024-02-23T01:00:01.329Z,0
2024-02-23T01:01:01.523Z,0
2024-02-23T01:03:01.699Z,0
2024-02-23T01:04:01.203Z,0
2024-02-23T01:05:02.151Z,0
2024-02-23T01:07:01.417Z,0
2024-02-23T01:08:01.432Z,0
2024-02-23T01:09:01.279Z,0
2024-02-23T01:10:01.461Z,0
2024-02-23T01:11:01.794Z,0
2024-02-23T01:12:02.414Z,0
2024-02-23T01:14:01.636Z,0
2024-02-23T01:15:06.803Z,0
2024-02-23T01:17:01.492Z,0
2024-02-23T01:18:01.546Z,0
2024-02-23T01:19:01.385Z,0
2024-02-23T01:20:02.166Z,0
2024-02-23T01:22:02.196Z,0
2024-02-23T01:24:01.345Z,0
2024-02-23T01:25:01.261Z,0
2024-02-23T01:26:01.608Z,0
2024-02-23T01:27:01.334Z,0
2024-02-23T01:28:01.284Z,0
2024-02-23T01:29:01.548Z,0
2024-02-23T01:30:01.264Z,0
2024-02-23T01:31:01.331Z,0
2024-02-23T01:32:01.452Z,0
2024-02-23T01:33:01.799Z,0
2024-02-23T01:34:01.835Z,0
2024-02-23T01:35:01.628Z,0
2024-02-23T01:36:01.444Z,0
2024-02-23T01:37:01.250Z,0
2024-02-23T01:38:01.555Z,0
2024-02-23T01:39:01.304Z,0
2024-02-23T01:40:01.342Z,0
2024-02-23T01:41:01.529Z,0
2024-02-23T01:42:01.255Z,0
2024-02-23T01:43:03.830Z,0
2024-02-23T01:45:01.501Z,0
2024-02-23T01:46:01.265Z,0
2024-02-23T01:47:01.628Z,0
2024-02-23T01:48:02.211Z,0
2024-02-23T01:50:01.839Z,0
2024-02-23T01:52:01.318Z,0
2024-02-23T01:53:01.417Z,0
2024-02-23T01:55:01.357Z,0
2024-02-23T01:56:01.601Z,0
2024-02-23T01:57:50.860Z,0
2024-02-23T01:59:01.573Z,0
2024-02-23T02:00:01.382Z,0
2024-02-23T02:01:01.604Z,0
2024-02-23T02:02:01.314Z,0
2024-02-23T02:04:01.489Z,0
2024-02-23T02:05:01.656Z,0
2024-02-23T02:06:01.220Z,0
2024-02-23T02:07:01.530Z,0
2024-02-23T02:08:02.031Z,0
2024-02-23T02:09:01.180Z,0
2024-02-23T02:10:01.348Z,0
2024-02-23T02:11:01.948Z,0
2024-02-23T02:12:01.746Z,0
2024-02-23T02:14:01.651Z,0
2024-02-23T02:15:01.270Z,0
2024-02-23T02:16:01.420Z,0
2024-02-23T02:19:01.630Z,0
2024-02-23T02:20:01.681Z,0
2024-02-23T02:21:01.348Z,0
2024-02-23T02:22:01.300Z,0
2024-02-23T02:23:01.714Z,0
2024-02-23T02:24:01.304Z,0
2024-02-23T02:25:01.389Z,0
2024-02-23T02:26:01.709Z,0
2024-02-23T02:27:01.239Z,0
2024-02-23T02:28:01.269Z,0
2024-02-23T02:29:01.449Z,0
2024-02-23T02:30:01.331Z,0
2024-02-23T02:31:01.290Z,0
2024-02-23T02:32:01.423Z,0
2024-02-23T02:33:01.553Z,0
2024-02-23T02:34:01.487Z,0
2024-02-23T02:35:01.720Z,0
2024-02-23T02:36:01.223Z,0
2024-02-23T02:37:01.260Z,0
2024-02-23T02:38:01.461Z,0
2024-02-23T02:39:01.302Z,0
2024-02-23T02:40:01.330Z,0
2024-02-23T02:41:01.468Z,0
2024-02-23T02:43:01.389Z,0
2024-02-23T02:44:01.426Z,0
2024-02-23T02:45:02.501Z,0
2024-02-23T02:47:01.374Z,0
2024-02-23T02:48:01.674Z,0
2024-02-23T02:50:01.622Z,0
2024-02-23T02:52:01.298Z,0
2024-02-23T02:53:01.437Z,0
2024-02-23T02:54:01.323Z,0
2024-02-23T02:55:01.281Z,0
2024-02-23T02:56:01.509Z,0
2024-02-23T02:57:01.252Z,0
2024-02-23T02:58:01.361Z,0
2024-02-23T02:59:01.386Z,0
2024-02-23T03:00:01.229Z,0
2024-02-23T03:01:01.502Z,0
2024-02-23T03:02:01.368Z,0
2024-02-23T03:03:01.248Z,0
2024-02-23T03:04:01.588Z,0
2024-02-23T03:05:01.500Z,0
2024-02-23T03:06:01.728Z,0
2024-02-23T03:08:01.680Z,0
2024-02-23T03:10:01.372Z,0
2024-02-23T03:11:01.622Z,0
2024-02-23T03:12:01.740Z,0
2024-02-23T03:13:01.225Z,0
2024-02-23T03:14:01.598Z,0
2024-02-23T03:16:01.361Z,0
2024-02-23T03:17:01.550Z,0
2024-02-23T03:18:01.395Z,0
2024-02-23T03:19:01.553Z,0
2024-02-23T03:20:02.456Z,0
2024-02-23T03:22:01.283Z,0
2024-02-23T03:23:01.420Z,0
2024-02-23T03:24:01.284Z,0
2024-02-23T03:25:01.223Z,0
2024-02-23T03:26:01.863Z,0
2024-02-23T03:27:02.524Z,0
2024-02-23T03:29:01.472Z,0
2024-02-23T03:31:01.282Z,0
2024-02-23T03:32:01.438Z,0
2024-02-23T03:33:01.579Z,0
2024-02-23T03:34:01.579Z,0
2024-02-23T03:35:01.551Z,0
2024-02-23T03:36:01.264Z,0
2024-02-23T03:37:01.313Z,0
2024-02-23T03:38:01.611Z,0
2024-02-23T03:40:01.318Z,0
2024-02-23T03:41:01.511Z,0
2024-02-23T03:42:01.333Z,0
2024-02-23T03:43:02.244Z,0
2024-02-23T03:44:01.358Z,0
2024-02-23T03:45:01.357Z,0
2024-02-23T03:46:01.290Z,0
2024-02-23T03:47:01.539Z,0
2024-02-23T03:48:01.660Z,0
2024-02-23T03:49:01.293Z,0
2024-02-23T03:50:01.565Z,0
2024-02-23T03:51:01.258Z,0
2024-02-23T03:52:01.303Z,0
2024-02-23T03:53:01.420Z,0
2024-02-23T03:54:01.267Z,0
2024-02-23T03:55:01.335Z,0
2024-02-23T03:56:01.735Z,0
2024-02-23T03:57:01.221Z,0
2024-02-23T03:58:01.349Z,0
2024-02-23T03:59:01.459Z,0
2024-02-23T04:00:01.253Z,0
2024-02-23T04:01:01.657Z,0
2024-02-23T04:02:01.289Z,0
2024-02-23T04:03:01.359Z,0
2024-02-23T04:04:01.516Z,0
2024-02-23T04:05:01.735Z,0
2024-02-23T04:06:01.256Z,0
2024-02-23T04:07:01.467Z,0
2024-02-23T04:08:01.461Z,0
2024-02-23T04:09:01.304Z,0
2024-02-23T04:10:01.306Z,0
2024-02-23T04:11:01.577Z,0
2024-02-23T04:12:02.375Z,0
2024-02-23T04:14:01.586Z,0
2024-02-23T04:15:01.225Z,0
2024-02-23T04:16:01.317Z,0
2024-02-23T04:17:01.388Z,0
2024-02-23T04:18:01.533Z,0
2024-02-23T04:19:01.586Z,0
2024-02-23T04:20:01.672Z,0
2024-02-23T04:22:01.321Z,0
2024-02-23T04:23:01.501Z,0
2024-02-23T04:25:01.345Z,0
2024-02-23T04:26:01.515Z,0
2024-02-23T04:27:01.541Z,0
2024-02-23T04:29:01.410Z,0
2024-02-23T04:30:01.234Z,0
2024-02-23T04:31:01.300Z,0
2024-02-23T04:32:01.383Z,0
2024-02-23T04:33:01.489Z,0
2024-02-23T04:34:01.538Z,0
2024-02-23T04:35:01.409Z,0
2024-02-23T04:37:01.279Z,0
2024-02-23T04:38:01.399Z,0
2024-02-23T04:39:01.298Z,0
2024-02-23T04:40:01.382Z,0
2024-02-23T04:41:01.375Z,0
2024-02-23T04:42:01.274Z,0
2024-02-23T04:43:01.279Z,0
2024-02-23T04:44:04.181Z,0
2024-02-23T04:46:01.254Z,0
2024-02-23T04:47:01.451Z,0
2024-02-23T04:48:01.563Z,0
2024-02-23T04:49:01.502Z,0
2024-02-23T04:50:01.706Z,0
2024-02-23T04:51:01.269Z,0
2024-02-23T04:52:01.299Z,0
2024-02-23T04:53:01.489Z,0
2024-02-23T04:54:01.333Z,0
2024-02-23T04:55:01.368Z,0
2024-02-23T04:56:01.499Z,0
2024-02-23T04:57:01.208Z,0
2024-02-23T04:58:01.263Z,0
2024-02-23T04:59:01.574Z,0
2024-02-23T05:00:01.355Z,0
2024-02-23T05:01:01.616Z,0
2024-02-23T05:02:01.729Z,0
2024-02-23T05:03:01.464Z,0
2024-02-23T05:04:01.633Z,0
2024-02-23T05:05:01.538Z,0
2024-02-23T05:06:01.562Z,0
2024-02-23T05:08:01.612Z,0
2024-02-23T05:09:01.252Z,0
2024-02-23T05:10:01.277Z,0
2024-02-23T05:11:01.827Z,0
2024-02-23T05:12:02.482Z,0
2024-02-23T05:14:01.529Z,0
2024-02-23T05:15:01.240Z,0
2024-02-23T05:16:01.341Z,0
2024-02-23T05:17:01.432Z,0
2024-02-23T05:18:01.449Z,0
2024-02-23T05:20:01.637Z,0
2024-02-23T05:22:01.298Z,0
2024-02-23T05:23:01.411Z,0
2024-02-23T05:24:01.253Z,0
2024-02-23T05:25:01.340Z,0
2024-02-23T05:26:01.292Z,0
2024-02-23T05:27:01.523Z,0
2024-02-23T05:28:01.239Z,0
2024-02-23T05:29:01.502Z,0
2024-02-23T05:30:01.272Z,0
2024-02-23T05:31:01.553Z,0
2024-02-23T05:33:01.453Z,0
2024-02-23T05:34:01.593Z,0
2024-02-23T05:35:01.502Z,0
2024-02-23T05:37:01.274Z,0
2024-02-23T05:38:01.453Z,0
2024-02-23T05:39:01.298Z,0
2024-02-23T05:40:01.982Z,0
2024-02-23T05:41:01.408Z,0
2024-02-23T05:42:01.657Z,0
2024-02-23T05:44:01.481Z,1
2024-02-23T05:45:01.290Z,1
2024-02-23T05:46:01.304Z,1
2024-02-23T05:47:01.573Z,1
2024-02-23T05:48:02.172Z,1
2024-02-23T05:49:01.945Z,2
2024-02-23T05:50:01.444Z,2
2024-02-23T05:51:01.269Z,2
2024-02-23T05:52:01.289Z,3
2024-02-23T05:53:01.467Z,3
2024-02-23T05:54:01.267Z,4
2024-02-23T05:55:01.327Z,5
2024-02-23T05:56:01.307Z,5
2024-02-23T05:58:01.306Z,8
2024-02-23T05:59:01.440Z,10
2024-02-23T06:00:01.318Z,12
2024-02-23T06:01:01.396Z,14
2024-02-23T06:02:01.494Z,16
2024-02-23T06:03:01.233Z,18
2024-02-23T06:04:01.281Z,21
2024-02-23T06:05:02.030Z,25
2024-02-23T06:06:01.916Z,29
2024-02-23T06:07:02.698Z,32
2024-02-23T06:09:01.258Z,40
2024-02-23T06:10:01.288Z,45
2024-02-23T06:11:01.828Z,52
2024-02-23T06:12:01.705Z,57
2024-02-23T06:13:05.520Z,63
2024-02-23T06:15:01.379Z,79
2024-02-23T06:16:01.278Z,89
2024-02-23T06:17:01.423Z,101
2024-02-23T06:18:01.587Z,115
2024-02-23T06:19:01.476Z,125
2024-02-23T06:20:07.686Z,132
2024-02-23T06:22:01.240Z,144
2024-02-23T06:23:01.610Z,158
2024-02-23T06:24:01.219Z,175
2024-02-23T06:25:01.303Z,178
2024-02-23T06:26:01.653Z,183
2024-02-23T06:27:01.284Z,194
2024-02-23T06:28:01.316Z,211
2024-02-23T06:29:01.777Z,227
2024-02-23T06:30:01.238Z,235
2024-02-23T06:31:01.307Z,244
2024-02-23T06:32:01.752Z,258
2024-02-23T06:33:02.169Z,271
2024-02-23T06:35:02.744Z,281
2024-02-23T06:37:01.311Z,276
2024-02-23T06:38:01.466Z,277
2024-02-23T06:39:01.269Z,274
2024-02-23T06:40:01.297Z,293
2024-02-23T06:41:01.892Z,290
2024-02-23T06:43:01.372Z,300
2024-02-23T06:44:01.347Z,300
2024-02-23T06:45:01.253Z,298
2024-02-23T06:46:01.276Z,279
2024-02-23T06:47:01.405Z,291
2024-02-23T06:48:01.581Z,324
2024-02-23T06:49:01.965Z,382
2024-02-23T06:50:01.483Z,409
2024-02-23T06:52:01.277Z,408
2024-02-23T06:53:01.425Z,454
2024-02-23T06:54:01.254Z,555
2024-02-23T06:55:01.279Z,624
2024-02-23T06:56:01.639Z,621
2024-02-23T06:58:01.322Z,556
2024-02-23T06:59:01.348Z,584
2024-02-23T07:01:01.477Z,666
2024-02-23T07:02:01.648Z,908
2024-02-23T07:03:01.334Z,820
2024-02-23T07:04:01.575Z,902
2024-02-23T07:06:01.698Z,966
2024-02-23T07:07:01.293Z,1057
2024-02-23T07:08:01.820Z,1047
2024-02-23T07:10:01.263Z,1169
2024-02-23T07:11:01.886Z,1373
2024-02-23T07:12:01.827Z,1311
2024-02-23T07:13:03.179Z,1388
2024-02-23T07:14:01.297Z,1304
2024-02-23T07:15:01.340Z,1180
2024-02-23T07:17:01.545Z,972
2024-02-23T07:18:01.476Z,800
2024-02-23T07:19:01.573Z,781
2024-02-23T07:20:01.361Z,694
2024-02-23T07:21:01.257Z,647
2024-02-23T07:22:01.296Z,714
2024-02-23T07:23:01.484Z,1166
2024-02-23T07:25:01.264Z,966
2024-02-23T07:26:01.475Z,958
2024-02-23T07:27:01.337Z,767
2024-02-23T07:28:01.287Z,726
2024-02-23T07:29:01.578Z,765
2024-02-23T07:31:01.459Z,740
2024-02-23T07:32:01.328Z,708
2024-02-23T07:33:01.723Z,698
2024-02-23T07:34:02.402Z,691
2024-02-23T07:36:01.306Z,914
2024-02-23T07:37:01.366Z,1055
2024-02-23T07:38:01.485Z,1638
2024-02-23T07:40:01.293Z,2108
2024-02-23T07:41:01.540Z,2043
2024-02-23T07:43:01.342Z,1798
2024-02-23T07:44:01.537Z,1908
2024-02-23T07:45:01.239Z,1978
2024-02-23T07:46:01.300Z,2141
2024-02-23T07:47:01.537Z,2301
2024-02-23T07:48:01.746Z,2369
2024-02-23T07:49:01.573Z,2497
2024-02-23T07:50:01.604Z,2609
2024-02-23T07:51:01.289Z,2622
2024-02-23T07:52:01.504Z,2481
2024-02-23T07:53:01.431Z,2364
2024-02-23T07:54:01.255Z,2341
2024-02-23T07:55:01.455Z,2294
2024-02-23T07:56:01.501Z,2388
2024-02-23T07:58:01.266Z,2368
2024-02-23T07:59:01.463Z,2617
2024-02-23T08:00:01.667Z,2884
2024-02-23T08:01:01.603Z,2662
2024-02-23T08:02:01.561Z,2397
2024-02-23T08:04:01.313Z,3009
2024-02-23T08:05:02.218Z,2767
2024-02-23T08:06:05.118Z,2646
2024-02-23T08:08:02.155Z,3013
2024-02-23T08:10:01.320Z,3769
2024-02-23T08:11:02.017Z,4366
2024-02-23T08:14:01.582Z,4231
2024-02-23T08:15:01.232Z,3834
2024-02-23T08:16:01.297Z,4306
2024-02-23T08:17:01.847Z,4539
2024-02-23T08:18:01.312Z,4606
2024-02-23T08:19:01.529Z,4397
2024-02-23T08:20:02.168Z,4622
2024-02-23T08:21:01.355Z,5089
2024-02-23T08:22:01.351Z,5461
2024-02-23T08:23:01.664Z,5691
2024-02-23T08:25:01.293Z,5298
2024-02-23T08:26:01.484Z,5826
2024-02-23T08:28:01.288Z,5220
2024-02-23T08:29:01.688Z,5282
2024-02-23T08:31:01.286Z,5701
2024-02-23T08:32:01.604Z,6162
2024-02-23T08:33:01.744Z,5763
2024-02-23T08:34:01.466Z,5989
2024-02-23T08:35:02.345Z,6743
2024-02-23T08:37:01.357Z,8320
2024-02-23T08:38:01.456Z,7722
2024-02-23T08:39:01.611Z,11289
2024-02-23T08:41:01.597Z,11351
2024-02-23T08:43:01.268Z,14047
2024-02-23T08:44:01.403Z,11869
2024-02-23T08:45:01.262Z,9604
2024-02-23T08:46:11.031Z,8535
2024-02-23T08:48:01.507Z,8171
2024-02-23T08:49:01.795Z,9735
2024-02-23T08:50:01.312Z,11877
2024-02-23T08:52:01.352Z,8294
2024-02-23T08:53:01.443Z,12061
2024-02-23T08:54:02.062Z,9112
2024-02-23T08:56:01.686Z,9214
2024-02-23T08:57:01.259Z,10738
2024-02-23T08:58:01.272Z,9618
2024-02-23T08:59:01.488Z,11540
2024-02-23T09:00:01.285Z,9038
2024-02-23T09:01:01.526Z,9610
2024-02-23T09:02:01.345Z,6233
2024-02-23T09:04:01.387Z,10801
2024-02-23T09:05:02.131Z,11287
2024-02-23T09:06:03.063Z,14717
2024-02-23T09:08:01.616Z,16418
2024-02-23T09:09:01.218Z,15190
2024-02-23T09:10:01.316Z,17094
2024-02-23T09:11:01.764Z,7214
2024-02-23T09:12:01.940Z,17028
2024-02-23T09:14:01.911Z,13542
2024-02-23T09:16:01.554Z,13069
2024-02-23T09:18:01.552Z,12383
2024-02-23T09:19:01.620Z,13944
2024-02-23T09:20:01.808Z,12701
2024-02-23T09:22:01.318Z,12517
2024-02-23T09:23:01.408Z,14231
2024-02-23T09:24:01.285Z,8055
2024-02-23T09:25:01.286Z,9744
2024-02-23T09:26:02.158Z,13642
2024-02-23T09:28:01.295Z,9331
2024-02-23T09:29:01.715Z,12601
2024-02-23T09:30:02.408Z,4728
2024-02-23T09:32:01.498Z,6857
2024-02-23T09:33:01.912Z,5353
2024-02-23T09:34:02.058Z,8976
2024-02-23T09:36:01.394Z,8136
2024-02-23T09:37:01.298Z,6695
2024-02-23T09:38:01.500Z,7882
2024-02-23T09:40:01.601Z,12095
2024-02-23T09:41:01.367Z,16568
2024-02-23T09:43:01.270Z,13470
2024-02-23T09:44:01.503Z,15685
2024-02-23T09:45:01.787Z,16780
2024-02-23T09:47:01.456Z,17187
2024-02-23T09:48:02.097Z,16203
2024-02-23T09:49:01.599Z,12531
2024-02-23T09:50:01.569Z,4860
2024-02-23T09:52:01.296Z,6836
2024-02-23T09:53:02.155Z,17225
2024-02-23T09:55:01.344Z,17772
2024-02-23T09:56:01.445Z,17480
2024-02-23T09:57:01.219Z,17534
2024-02-23T09:58:01.458Z,18495
2024-02-23T09:59:01.682Z,18712
2024-02-23T10:00:01.282Z,11306
2024-02-23T10:01:01.427Z,18020
2024-02-23T10:02:01.588Z,19059
2024-02-23T10:04:01.747Z,19907
2024-02-23T10:06:02.060Z,20259
2024-02-23T10:07:01.517Z,19034
2024-02-23T10:08:02.291Z,17317
2024-02-23T10:09:01.646Z,18416
2024-02-23T10:10:01.224Z,17894
2024-02-23T10:11:01.810Z,18273
2024-02-23T10:12:02.083Z,18236
2024-02-23T10:14:01.435Z,18230
2024-02-23T10:15:01.270Z,18357
2024-02-23T10:16:16.776Z,17937
2024-02-23T10:18:02.546Z,17960
2024-02-23T10:19:01.357Z,18428
2024-02-23T10:20:01.550Z,18892
2024-02-23T10:22:01.264Z,18916
2024-02-23T10:23:01.357Z,18875
2024-02-23T10:24:01.266Z,18528
2024-02-23T10:25:01.727Z,16338
2024-02-23T10:26:01.292Z,14731
2024-02-23T10:27:01.340Z,18629
2024-02-23T10:28:01.295Z,18307
2024-02-23T10:29:01.457Z,18445
2024-02-23T10:30:01.701Z,18303
2024-02-23T10:31:01.281Z,18363
2024-02-23T10:32:01.522Z,18463
2024-02-23T10:33:01.720Z,18289
2024-02-23T10:34:01.569Z,17942
2024-02-23T10:35:02.155Z,17949
2024-02-23T10:37:01.308Z,17971
2024-02-23T10:38:01.456Z,17924
2024-02-23T10:39:01.334Z,18015
2024-02-23T10:40:01.593Z,18055
2024-02-23T10:41:01.426Z,18083
2024-02-23T10:42:01.310Z,18119
2024-02-23T10:44:01.642Z,18115
2024-02-23T10:46:01.219Z,18177
2024-02-23T10:47:02.095Z,18252
2024-02-23T10:48:01.738Z,18249
2024-02-23T10:49:01.865Z,18292
2024-02-23T10:51:01.297Z,18326
2024-02-23T10:52:01.450Z,18344
2024-02-23T10:54:01.365Z,18419
2024-02-23T10:55:01.293Z,18372
2024-02-23T10:56:01.547Z,18371
2024-02-23T10:57:01.269Z,18384
2024-02-23T10:58:01.373Z,18414
2024-02-23T10:59:01.427Z,18460
2024-02-23T11:01:01.640Z,18529
2024-02-23T11:02:01.798Z,18525
2024-02-23T11:04:01.302Z,18548
2024-02-23T11:05:02.319Z,18622
2024-02-23T11:06:01.655Z,18669
2024-02-23T11:07:01.536Z,18602
2024-02-23T11:08:01.492Z,18630
2024-02-23T11:09:01.275Z,18692
2024-02-23T11:10:01.333Z,18680
2024-02-23T11:11:01.702Z,18703
2024-02-23T11:12:02.202Z,18699
2024-02-23T11:13:01.205Z,18701
2024-02-23T11:14:01.523Z,18760
2024-02-23T11:15:01.456Z,18836
2024-02-23T11:16:01.320Z,18974
2024-02-23T11:17:01.503Z,19331
2024-02-23T11:18:01.869Z,19698
2024-02-23T11:19:01.325Z,19968
2024-02-23T11:20:02.159Z,20606
2024-02-23T11:22:01.415Z,17827
2024-02-23T11:23:01.726Z,20478
2024-02-23T11:24:01.226Z,17216
2024-02-23T11:25:01.344Z,7297
2024-02-23T11:26:01.458Z,12874
2024-02-23T11:27:01.293Z,6579
2024-02-23T11:28:01.343Z,11701
2024-02-23T11:29:01.416Z,5911
2024-02-23T11:30:01.275Z,6337
2024-02-23T11:31:01.316Z,6085
2024-02-23T11:32:01.688Z,6281
2024-02-23T11:33:01.850Z,7215
2024-02-23T11:34:01.533Z,7944
2024-02-23T11:35:01.761Z,7329
2024-02-23T11:36:01.193Z,6491
2024-02-23T11:37:01.341Z,5053
2024-02-23T11:38:01.959Z,5281
2024-02-23T11:40:01.338Z,4654
2024-02-23T11:41:01.406Z,4632
2024-02-23T11:42:01.317Z,5381
2024-02-23T11:43:01.665Z,4362
2024-02-23T11:46:01.328Z,5823
2024-02-23T11:47:01.667Z,6562
2024-02-23T11:48:02.636Z,20809
2024-02-23T11:50:01.538Z,3586
2024-02-23T11:51:01.345Z,3935
2024-02-23T11:52:01.355Z,6784
2024-02-23T11:53:01.586Z,6973
2024-02-23T11:54:01.251Z,7305
2024-02-23T11:55:01.309Z,7709
2024-02-23T11:56:01.523Z,5598
2024-02-23T11:58:19.894Z,6704
2024-02-23T12:00:01.295Z,4412
2024-02-23T12:01:01.528Z,4787
2024-02-23T12:02:06.848Z,5775
2024-02-23T12:04:01.502Z,6464
2024-02-23T12:05:02.098Z,6710
2024-02-23T12:06:01.450Z,7789
2024-02-23T12:07:01.442Z,6805
2024-02-23T12:08:01.552Z,5357
2024-02-23T12:09:01.289Z,5772
2024-02-23T12:10:01.264Z,6759
2024-02-23T12:11:02.073Z,6692
2024-02-23T12:13:01.287Z,5250
2024-02-23T12:14:02.044Z,5655
2024-02-23T12:16:01.279Z,6466
2024-02-23T12:17:01.560Z,6520
2024-02-23T12:18:01.627Z,7755
2024-02-23T12:19:01.306Z,9077
2024-02-23T12:20:02.479Z,8477
2024-02-23T12:21:01.359Z,8092
2024-02-23T12:22:01.514Z,8265
2024-02-23T12:23:01.321Z,7955
2024-02-23T12:24:01.290Z,8030
2024-02-23T12:25:01.298Z,8711
2024-02-23T12:26:01.516Z,6911
2024-02-23T12:27:01.267Z,7170
2024-02-23T12:29:01.367Z,21042
2024-02-23T12:31:01.264Z,7478
2024-02-23T12:32:03.145Z,6083
2024-02-23T12:34:02.068Z,4648
2024-02-23T12:35:01.381Z,7088
2024-02-23T12:36:01.396Z,6093
2024-02-23T12:38:01.428Z,7689
2024-02-23T12:39:01.250Z,5986
2024-02-23T12:40:01.270Z,5757
2024-02-23T12:41:01.659Z,5618
2024-02-23T12:43:01.232Z,7275
2024-02-23T12:44:01.702Z,9754
2024-02-23T12:45:01.223Z,11306
2024-02-23T12:46:01.301Z,9339
2024-02-23T12:47:01.513Z,7638
2024-02-23T12:48:01.944Z,7830
2024-02-23T12:49:01.443Z,9347
2024-02-23T12:50:01.622Z,8995
2024-02-23T12:51:01.252Z,22323
2024-02-23T12:52:01.317Z,7600
2024-02-23T12:53:01.582Z,6217
2024-02-23T12:55:01.291Z,5236
2024-02-23T12:56:01.460Z,5388
2024-02-23T12:57:01.285Z,5793
2024-02-23T12:58:01.256Z,6572
2024-02-23T12:59:01.588Z,7081
2024-02-23T13:01:01.529Z,5649
2024-02-23T13:02:01.809Z,5056
2024-02-23T13:03:01.407Z,5159
2024-02-23T13:04:01.630Z,5430
2024-02-23T13:05:01.754Z,6088
2024-02-23T13:07:01.941Z,5900
2024-02-23T13:09:01.466Z,7611
2024-02-23T13:10:01.255Z,8258
2024-02-23T13:11:01.813Z,8018
2024-02-23T13:12:01.946Z,19037
2024-02-23T13:14:01.438Z,6042
2024-02-23T13:15:01.322Z,5673
2024-02-23T13:16:01.363Z,5085
2024-02-23T13:17:01.379Z,16091
2024-02-23T13:18:01.493Z,14650
2024-02-23T13:19:01.509Z,14006
2024-02-23T13:20:13.181Z,13078
2024-02-23T13:22:01.267Z,11743
2024-02-23T13:23:01.427Z,11008
2024-02-23T13:24:01.232Z,10125
2024-02-23T13:25:01.309Z,9205
2024-02-23T13:26:01.477Z,8474
2024-02-23T13:27:01.284Z,7640
2024-02-23T13:28:01.327Z,6982
2024-02-23T13:29:01.536Z,6425
2024-02-23T13:31:01.274Z,5907
2024-02-23T13:32:01.507Z,5438
2024-02-23T13:33:02.290Z,5281
2024-02-23T13:34:01.860Z,3479
2024-02-23T13:35:01.667Z,3114
2024-02-23T13:37:01.276Z,3758
2024-02-23T13:38:01.686Z,3770
2024-02-23T13:39:02.125Z,3883
2024-02-23T13:41:01.425Z,4892
2024-02-23T13:42:01.251Z,4636
2024-02-23T13:43:01.491Z,3945
2024-02-23T13:44:01.455Z,3986
2024-02-23T13:45:01.983Z,4593
2024-02-23T13:47:01.509Z,4752
2024-02-23T13:48:02.752Z,4053
2024-02-23T13:50:01.699Z,5194
2024-02-23T13:52:01.299Z,5652
2024-02-23T13:53:01.502Z,5722
2024-02-23T13:54:01.187Z,5376
2024-02-23T13:55:01.503Z,5713
2024-02-23T13:56:01.487Z,5951
2024-02-23T13:58:01.308Z,6803
2024-02-23T13:59:01.726Z,6374
2024-02-23T14:01:01.754Z,5599
2024-02-23T14:03:01.750Z,5462
2024-02-23T14:04:01.881Z,5316
2024-02-23T14:05:01.490Z,5769
2024-02-23T14:06:01.654Z,6393
2024-02-23T14:07:01.483Z,5030
2024-02-23T14:09:01.272Z,4864
2024-02-23T14:10:01.399Z,4830
2024-02-23T14:11:01.568Z,5381
2024-02-23T14:12:02.033Z,5380
2024-02-23T14:14:01.529Z,4132
2024-02-23T14:15:01.608Z,4840
2024-02-23T14:16:01.272Z,6018
2024-02-23T14:17:01.462Z,5840
2024-02-23T14:18:01.920Z,5114
2024-02-23T14:20:02.380Z,3723
2024-02-23T14:22:01.285Z,4136
2024-02-23T14:23:01.587Z,4954
2024-02-23T14:25:01.591Z,5107
2024-02-23T14:26:01.508Z,5075
2024-02-23T14:27:01.233Z,4666
2024-02-23T14:28:01.295Z,4153
2024-02-23T14:29:01.580Z,3982
2024-02-23T14:30:01.658Z,3888
2024-02-23T14:32:01.479Z,3518
2024-02-23T14:33:01.780Z,3780
2024-02-23T14:34:01.875Z,4085
2024-02-23T14:35:02.480Z,4010
2024-02-23T14:37:01.284Z,4024
2024-02-23T14:38:01.783Z,3862
2024-02-23T14:39:01.536Z,3738
2024-02-23T14:40:01.266Z,3584
2024-02-23T14:41:01.565Z,3781
2024-02-23T14:42:01.475Z,3555
2024-02-23T14:43:01.277Z,3554
2024-02-23T14:44:01.602Z,3307
2024-02-23T14:46:01.502Z,3123
2024-02-23T14:47:01.410Z,3236
2024-02-23T14:48:01.709Z,2872
2024-02-23T14:49:01.493Z,2546
2024-02-23T14:50:02.034Z,2743
2024-02-23T14:51:01.437Z,2717
2024-02-23T14:52:01.378Z,2520
2024-02-23T14:53:01.497Z,2501
2024-02-23T14:55:01.262Z,2365
2024-02-23T14:56:01.409Z,2512
2024-02-23T14:57:01.271Z,2628
2024-02-23T14:58:01.291Z,2866
2024-02-23T14:59:01.404Z,3077
2024-02-23T15:00:01.323Z,3262
2024-02-23T15:01:01.612Z,2850
2024-02-23T15:02:01.343Z,2320
2024-02-23T15:03:01.349Z,2168
2024-02-23T15:04:01.272Z,2262
2024-02-23T15:05:02.452Z,2570
2024-02-23T15:07:01.523Z,2466
2024-02-23T15:09:01.255Z,2058
2024-02-23T15:10:01.292Z,2168
2024-02-23T15:11:01.905Z,2255
2024-02-23T15:12:01.911Z,2315
2024-02-23T15:14:01.453Z,2112
2024-02-23T15:15:01.239Z,2036
2024-02-23T15:16:01.294Z,2050
2024-02-23T15:17:01.412Z,1979
2024-02-23T15:18:01.904Z,1750
2024-02-23T15:19:01.334Z,1672
2024-02-23T15:20:02.317Z,1678
2024-02-23T15:22:01.290Z,1805
2024-02-23T15:23:01.460Z,1717
2024-02-23T15:24:01.628Z,1627
2024-02-23T15:25:02.000Z,1654
2024-02-23T15:26:12.850Z,1653
2024-02-23T15:28:01.372Z,1471
2024-02-23T15:29:01.625Z,1499
2024-02-23T15:30:01.447Z,1488
2024-02-23T15:32:01.544Z,1490
2024-02-23T15:33:02.207Z,1322
2024-02-23T15:34:02.123Z,1214
2024-02-23T15:36:01.316Z,1204
2024-02-23T15:37:01.236Z,1275
2024-02-23T15:38:01.510Z,1299
2024-02-23T15:39:07.256Z,1268
2024-02-23T15:41:01.450Z,1323
2024-02-23T15:43:05.328Z,1321
2024-02-23T15:45:01.283Z,1405
2024-02-23T15:46:01.341Z,1482
2024-02-23T15:47:01.583Z,1400
2024-02-23T15:48:01.602Z,1322
2024-02-23T15:49:54.771Z,1208
2024-02-23T15:51:58.862Z,1163
2024-02-23T15:53:02.297Z,1281
2024-02-23T15:54:01.268Z,1289
2024-02-23T15:55:01.347Z,1203
2024-02-23T15:56:01.421Z,1115
2024-02-23T15:57:01.258Z,1064
2024-02-23T15:58:01.296Z,1047
2024-02-23T15:59:01.582Z,988
2024-02-23T16:00:05.902Z,906
2024-02-23T16:02:01.641Z,798
2024-02-23T16:03:01.516Z,717
2024-02-23T16:05:02.045Z,622
2024-02-23T16:06:02.204Z,636
2024-02-23T16:08:01.853Z,701
2024-02-23T16:09:01.245Z,712
2024-02-23T16:10:01.307Z,662
2024-02-23T16:11:01.964Z,620
2024-02-23T16:12:01.745Z,614
2024-02-23T16:13:02.217Z,638
2024-02-23T16:15:01.380Z,593
2024-02-23T16:16:01.300Z,570
2024-02-23T16:17:01.566Z,551
2024-02-23T16:18:02.443Z,540
2024-02-23T16:20:01.494Z,505
2024-02-23T16:21:01.308Z,471
2024-02-23T16:22:01.338Z,441
2024-02-23T16:23:01.331Z,412
2024-02-23T16:25:01.285Z,380
2024-02-23T16:26:01.833Z,364
2024-02-23T16:28:01.276Z,310
2024-02-23T16:29:01.452Z,290
2024-02-23T16:30:01.370Z,271
2024-02-23T16:31:01.247Z,259
2024-02-23T16:32:01.444Z,252